createdAt,value
2023-04-24T00:02:16.220Z,97.02
2023-04-24T00:11:48.822Z,96.76
2023-04-24T00:21:24.468Z,98.02
2023-04-24T00:30:56.338Z,97.94
2023-04-24T00:40:30.381Z,98.23
2023-04-24T00:50:04.590Z,98.48
2023-04-24T00:59:40.228Z,98.85
2023-04-24T01:09:12.554Z,98.54
2023-04-24T01:18:48.518Z,97.55
2023-04-24T01:28:20.721Z,97.22
2023-04-24T01:37:55.067Z,96.06
2023-04-24T01:47:30.962Z,96.87
2023-04-24T01:57:04.300Z,99.77
2023-04-24T02:06:36.097Z,100.00
2023-04-24T02:16:11.605Z,100.00
2023-04-24T02:25:45.854Z,100.00
2023-04-24T02:35:18.381Z,100.00
2023-04-24T02:44:52.507Z,100.00
2023-04-24T02:54:26.732Z,99.94
2023-04-24T03:04:01.377Z,98.22
2023-04-24T03:13:36.884Z,94.99
2023-04-24T03:23:09.763Z,91.27
2023-04-24T03:32:43.829Z,90.68
2023-04-24T03:42:17.655Z,91.19
2023-04-24T03:51:51.554Z,90.29
2023-04-24T04:01:26.765Z,88.13
2023-04-24T04:11:00.406Z,84.22
2023-04-24T04:20:31.903Z,82.28
2023-04-24T04:30:07.034Z,81.34
2023-04-24T04:39:38.950Z,82.69
2023-04-24T04:49:14.274Z,84.68
2023-04-24T04:58:46.563Z,86.23
2023-04-24T05:08:26.926Z,87.12
2023-04-24T05:17:55.146Z,88.51
2023-04-24T05:27:28.277Z,87.89
2023-04-24T05:37:02.445Z,88.45
2023-04-24T05:46:38.054Z,88.39
2023-04-24T05:47:40.392Z,88.43
2023-04-24T05:57:14.738Z,89.69
2023-04-24T06:06:50.862Z,88.41
2023-04-24T06:16:25.385Z,85.52
2023-04-24T06:26:00.054Z,84.52
2023-04-24T06:35:32.662Z,83.31
2023-04-24T06:45:07.369Z,83.58
2023-04-24T06:46:09.856Z,83.53
2023-04-24T06:55:43.245Z,82.75
2023-04-24T06:56:47.322Z,83.24
2023-04-24T06:57:49.643Z,82.85
2023-04-24T06:58:53.693Z,83.16
2023-04-24T06:59:57.595Z,82.50
2023-04-24T07:01:01.540Z,82.78
2023-04-24T07:02:03.938Z,82.14
2023-04-24T07:11:36.749Z,79.40
2023-04-24T07:12:39.215Z,78.32
2023-04-24T07:13:41.701Z,78.12
2023-04-24T07:14:45.712Z,78.13
2023-04-24T07:15:49.726Z,77.84
2023-04-24T07:16:51.928Z,77.08
2023-04-24T07:26:26.304Z,77.00
2023-04-24T07:27:28.675Z,78.09
2023-04-24T07:28:31.135Z,77.66
2023-04-24T07:29:35.208Z,76.32
2023-04-24T07:30:39.115Z,76.32
2023-04-24T07:31:41.512Z,76.10
2023-04-24T07:32:43.939Z,75.87
2023-04-24T07:33:46.412Z,74.36
2023-04-24T07:34:48.819Z,75.03
2023-04-24T07:35:51.231Z,75.75
2023-04-24T07:36:55.337Z,75.59
2023-04-24T07:37:59.189Z,75.67
2023-04-24T07:39:01.499Z,75.83
2023-04-24T07:40:03.960Z,77.03
2023-04-24T07:41:06.426Z,74.07
2023-04-24T07:42:11.473Z,74.25
2023-04-24T07:43:15.354Z,75.37
2023-04-24T07:44:17.621Z,74.34
2023-04-24T07:45:21.681Z,72.95
2023-04-24T07:46:25.767Z,72.99
2023-04-24T07:47:28.056Z,72.72
2023-04-24T07:48:30.501Z,73.40
2023-04-24T07:49:34.475Z,73.10
2023-04-24T07:50:36.763Z,73.72
2023-04-24T07:51:39.116Z,72.57
2023-04-24T07:52:41.585Z,72.15
2023-04-24T07:53:45.679Z,72.47
2023-04-24T07:54:47.955Z,72.02
2023-04-24T07:55:50.379Z,72.51
2023-04-24T07:56:52.860Z,72.48
2023-04-24T07:57:56.894Z,71.96
2023-04-24T07:58:59.201Z,72.35
2023-04-24T08:08:30.936Z,71.18
2023-04-24T08:09:33.495Z,72.33
2023-04-24T08:10:37.535Z,71.62
2023-04-24T08:11:41.426Z,69.43
2023-04-24T08:12:45.370Z,69.70
2023-04-24T08:13:49.266Z,69.42
2023-04-24T08:14:51.604Z,69.85
2023-04-24T08:15:54.132Z,68.95
2023-04-24T08:16:56.513Z,69.64
2023-04-24T08:18:00.648Z,70.11
2023-04-24T08:19:04.478Z,69.57
2023-04-24T08:20:08.419Z,70.87
2023-04-24T08:21:12.375Z,71.06
2023-04-24T08:22:16.267Z,70.89
2023-04-24T08:23:18.647Z,70.60
2023-04-24T08:24:21.058Z,71.15
2023-04-24T08:25:23.505Z,71.95
2023-04-24T08:26:27.530Z,71.64
2023-04-24T08:27:29.947Z,71.73
2023-04-24T08:28:33.909Z,71.59
2023-04-24T08:29:36.359Z,70.72
2023-04-24T08:30:40.425Z,69.32
2023-04-24T08:31:44.469Z,67.76
2023-04-24T08:32:48.277Z,67.85
2023-04-24T08:33:50.589Z,67.74
2023-04-24T08:34:54.609Z,68.04
2023-04-24T08:35:58.529Z,67.89
2023-04-24T08:37:00.853Z,68.18
2023-04-24T08:38:04.918Z,68.71
2023-04-24T08:39:07.216Z,68.35
2023-04-24T08:40:11.291Z,68.63
2023-04-24T08:41:13.605Z,69.23
2023-04-24T08:42:16.110Z,69.85
2023-04-24T08:43:21.100Z,69.21
2023-04-24T08:44:23.326Z,69.06
2023-04-24T08:45:25.781Z,69.03
2023-04-24T08:46:28.291Z,68.75
2023-04-24T08:47:32.291Z,69.36
2023-04-24T08:48:34.591Z,68.60
2023-04-24T08:49:38.568Z,69.52
2023-04-24T08:50:40.909Z,68.05
2023-04-24T08:51:44.905Z,68.96
2023-04-24T08:52:47.230Z,69.13
2023-04-24T08:53:49.718Z,69.54
2023-04-24T08:54:52.125Z,68.74
2023-04-24T08:55:56.291Z,69.51
2023-04-24T08:56:58.530Z,70.05
2023-04-24T08:58:02.600Z,69.52
2023-04-24T08:59:06.431Z,68.77
2023-04-24T09:00:11.123Z,68.48
2023-04-24T09:01:11.249Z,68.38
2023-04-24T09:02:13.790Z,69.16
2023-04-24T09:03:16.290Z,69.46
2023-04-24T09:04:18.672Z,69.46
2023-04-24T09:05:20.983Z,69.88
2023-04-24T09:06:23.458Z,69.57
2023-04-24T09:07:27.504Z,68.88
2023-04-24T09:08:29.841Z,68.93
2023-04-24T09:09:32.257Z,69.68
2023-04-24T09:10:36.355Z,70.21
2023-04-24T09:11:40.319Z,70.43
2023-04-24T09:12:42.635Z,68.47
2023-04-24T09:13:45.089Z,69.20
2023-04-24T09:14:49.092Z,70.21
2023-04-24T09:15:51.472Z,69.41
2023-04-24T09:16:55.487Z,67.68
2023-04-24T09:17:57.871Z,67.54
2023-04-24T09:19:01.833Z,67.75
2023-04-24T09:20:04.180Z,68.31
2023-04-24T09:21:08.179Z,68.28
2023-04-24T09:22:10.506Z,68.22
2023-04-24T09:23:15.594Z,67.66
2023-04-24T09:24:17.865Z,67.18
2023-04-24T09:25:20.155Z,67.96
2023-04-24T09:26:22.669Z,68.35
2023-04-24T09:27:26.700Z,68.03
2023-04-24T09:28:29.091Z,68.77
2023-04-24T09:29:31.478Z,69.58
2023-04-24T09:30:35.529Z,69.38
2023-04-24T09:31:39.565Z,69.89
2023-04-24T09:32:43.534Z,69.88
2023-04-24T09:33:47.495Z,69.99
2023-04-24T09:34:51.397Z,70.17
2023-04-24T09:35:55.359Z,69.82
2023-04-24T09:36:57.685Z,70.69
2023-04-24T09:38:00.150Z,70.56
2023-04-24T09:39:02.639Z,70.17
2023-04-24T09:40:05.089Z,70.39
2023-04-24T09:41:07.528Z,70.50
2023-04-24T09:42:10.033Z,70.25
2023-04-24T09:43:14.110Z,70.65
2023-04-24T09:44:16.424Z,69.22
2023-04-24T09:45:18.875Z,69.06
2023-04-24T09:46:23.023Z,69.02
2023-04-24T09:47:25.329Z,69.88
2023-04-24T09:48:29.395Z,69.68
2023-04-24T09:49:31.661Z,68.89
2023-04-24T09:50:35.730Z,70.25
2023-04-24T09:51:38.095Z,70.46
2023-04-24T09:52:42.079Z,71.11
2023-04-24T09:53:44.530Z,71.54
2023-04-24T09:54:46.894Z,71.76
2023-04-24T09:55:49.342Z,70.63
2023-04-24T09:56:51.777Z,70.68
2023-04-24T09:57:54.225Z,71.50
2023-04-24T09:58:59.370Z,71.22
2023-04-24T10:00:03.173Z,71.50
2023-04-24T10:01:05.460Z,71.38
2023-04-24T10:02:09.552Z,71.36
2023-04-24T10:03:12.034Z,71.58
2023-04-24T10:04:14.425Z,71.86
2023-04-24T10:05:18.482Z,71.22
2023-04-24T10:06:20.850Z,71.48
2023-04-24T10:07:23.366Z,71.88
2023-04-24T10:08:25.802Z,71.65
2023-04-24T10:09:28.264Z,72.07
2023-04-24T10:10:30.759Z,72.47
2023-04-24T10:11:33.249Z,70.76
2023-04-24T10:12:37.266Z,69.90
2023-04-24T10:13:39.672Z,69.92
2023-04-24T10:14:44.473Z,69.66
2023-04-24T10:15:46.085Z,69.93
2023-04-24T10:16:48.481Z,70.40
2023-04-24T10:17:51.041Z,70.36
2023-04-24T10:18:55.098Z,70.77
2023-04-24T10:19:59.154Z,69.46
2023-04-24T10:21:01.532Z,68.35
2023-04-24T10:22:07.667Z,68.95
2023-04-24T10:23:09.550Z,68.88
2023-04-24T10:24:13.391Z,68.46
2023-04-24T10:25:15.715Z,68.57
2023-04-24T10:26:19.786Z,69.29
2023-04-24T10:27:23.753Z,69.50
2023-04-24T10:28:26.090Z,69.81
2023-04-24T10:29:28.524Z,70.13
2023-04-24T10:30:31.007Z,71.07
2023-04-24T10:31:33.509Z,71.97
2023-04-24T10:32:35.942Z,73.04
2023-04-24T10:33:38.388Z,75.62
2023-04-24T10:34:40.774Z,76.14
2023-04-24T10:35:43.215Z,76.05
2023-04-24T10:36:45.684Z,77.78
2023-04-24T10:37:48.052Z,77.85
2023-04-24T10:38:52.121Z,78.00
2023-04-24T10:39:54.532Z,79.97
2023-04-24T10:40:56.950Z,81.63
2023-04-24T10:41:59.429Z,83.93
2023-04-24T10:43:03.481Z,83.69
2023-04-24T10:44:05.745Z,84.04
2023-04-24T10:45:08.151Z,84.69
2023-04-24T10:46:10.629Z,84.36
2023-04-24T10:47:14.600Z,84.95
2023-04-24T10:48:16.970Z,85.28
2023-04-24T10:49:20.946Z,86.39
2023-04-24T10:50:23.334Z,86.01
2023-04-24T10:51:25.747Z,87.17
2023-04-24T10:52:28.233Z,87.79
2023-04-24T10:53:30.656Z,87.42
2023-04-24T10:54:33.124Z,88.45
2023-04-24T10:55:37.140Z,88.92
2023-04-24T10:56:41.052Z,89.25
2023-04-24T10:57:44.783Z,89.67
2023-04-24T10:58:47.295Z,90.77
2023-04-24T10:59:51.236Z,91.59
2023-04-24T11:00:55.153Z,91.85
2023-04-24T11:01:59.066Z,92.53
2023-04-24T11:03:01.503Z,92.94
2023-04-24T11:04:03.918Z,94.33
2023-04-24T11:05:07.730Z,94.68
2023-04-24T11:06:10.066Z,94.42
2023-04-24T11:07:14.135Z,93.64
2023-04-24T11:08:18.266Z,94.04
2023-04-24T11:09:22.180Z,95.04
2023-04-24T11:10:26.211Z,94.71
2023-04-24T11:19:56.288Z,99.62
2023-04-24T11:20:58.491Z,100.00
2023-04-24T11:22:00.977Z,99.90
2023-04-24T11:23:03.443Z,99.44
2023-04-24T11:24:05.885Z,99.53
2023-04-24T11:25:08.331Z,99.19
2023-04-24T11:26:10.797Z,98.35
2023-04-24T11:27:13.277Z,97.92
2023-04-24T11:28:15.693Z,97.83
2023-04-24T11:29:20.372Z,99.00
2023-04-24T11:30:22.017Z,98.73
2023-04-24T11:31:26.046Z,98.41
2023-04-24T11:32:29.994Z,97.82
2023-04-24T11:33:33.930Z,97.41
2023-04-24T11:34:36.170Z,95.58
2023-04-24T11:35:38.664Z,96.50
2023-04-24T11:36:41.122Z,96.88
2023-04-24T11:37:45.301Z,96.10
2023-04-24T11:38:49.094Z,95.63
2023-04-24T11:39:51.397Z,92.44
2023-04-24T11:40:54.778Z,91.96
2023-04-24T11:41:57.176Z,92.17
2023-04-24T11:42:59.677Z,93.64
2023-04-24T11:44:02.367Z,93.12
2023-04-24T11:45:06.469Z,94.37
2023-04-24T11:46:08.729Z,96.06
2023-04-24T11:47:12.832Z,97.81
2023-04-24T11:48:16.788Z,97.70
2023-04-24T11:49:19.238Z,91.36
2023-04-24T11:50:21.731Z,91.30
2023-04-24T11:51:27.501Z,90.73
2023-04-24T11:52:29.936Z,92.89
2023-04-24T11:53:32.256Z,91.97
2023-04-24T11:54:34.725Z,91.45
2023-04-24T11:55:38.846Z,92.31
2023-04-24T11:56:41.272Z,88.19
2023-04-24T11:57:49.276Z,84.85
2023-04-24T11:58:53.040Z,82.20
2023-04-24T11:59:57.005Z,82.77
2023-04-24T12:00:59.351Z,84.09
2023-04-24T12:02:03.389Z,81.07
2023-04-24T12:03:07.081Z,77.40
2023-04-24T12:04:19.294Z,80.87
2023-04-24T12:05:21.034Z,80.29
2023-04-24T12:06:23.395Z,77.17
2023-04-24T12:07:27.555Z,79.39
2023-04-24T12:08:34.217Z,79.50
2023-04-24T12:09:37.927Z,79.93
2023-04-24T12:10:42.798Z,77.61
2023-04-24T12:11:46.604Z,75.10
2023-04-24T12:12:50.693Z,74.78
2023-04-24T12:13:52.913Z,75.68
2023-04-24T12:14:55.458Z,71.33
2023-04-24T12:15:59.563Z,71.43
2023-04-24T12:17:03.507Z,71.12
2023-04-24T12:18:05.830Z,71.17
2023-04-24T12:19:09.876Z,68.43
2023-04-24T12:20:13.798Z,68.13
2023-04-24T12:21:16.094Z,71.48
2023-04-24T12:22:20.395Z,68.09
2023-04-24T12:23:22.657Z,68.84
2023-04-24T12:24:26.762Z,70.07
2023-04-24T12:25:29.162Z,69.31
2023-04-24T12:26:31.567Z,70.02
2023-04-24T12:27:35.640Z,71.89
2023-04-24T12:28:39.618Z,69.56
2023-04-24T12:29:43.511Z,69.05
2023-04-24T12:30:45.909Z,67.62
2023-04-24T12:31:48.287Z,69.50
2023-04-24T12:32:52.341Z,69.17
2023-04-24T12:33:54.589Z,69.18
2023-04-24T12:34:57.069Z,67.62
2023-04-24T12:36:01.156Z,67.64
2023-04-24T12:37:05.082Z,67.59
2023-04-24T12:38:07.489Z,69.59
2023-04-24T12:39:11.607Z,65.56
2023-04-24T12:40:14.054Z,63.18
2023-04-24T12:41:16.431Z,63.33
2023-04-24T12:42:18.882Z,63.18
2023-04-24T12:43:22.994Z,64.13
2023-04-24T12:44:25.326Z,65.16
2023-04-24T12:45:27.795Z,65.60
2023-04-24T12:46:30.253Z,67.66
2023-04-24T12:47:33.860Z,65.04
2023-04-24T12:48:36.247Z,63.86
2023-04-24T12:49:40.233Z,63.29
2023-04-24T12:50:44.265Z,62.88
2023-04-24T12:51:46.686Z,62.77
2023-04-24T12:52:50.656Z,62.89
2023-04-24T12:53:54.335Z,60.14
2023-04-24T12:54:55.507Z,61.41
2023-04-24T12:56:03.522Z,61.20
2023-04-24T12:57:05.729Z,61.04
2023-04-24T12:58:09.892Z,59.13
2023-04-24T12:59:12.101Z,59.77
2023-04-24T13:00:14.532Z,57.90
2023-04-24T13:01:17.055Z,59.79
2023-04-24T13:02:19.595Z,58.59
2023-04-24T13:03:21.973Z,58.19
2023-04-24T13:04:24.414Z,60.03
2023-04-24T13:05:28.383Z,61.76
2023-04-24T13:06:32.409Z,61.87
2023-04-24T13:07:36.403Z,63.45
2023-04-24T13:08:38.712Z,61.16
2023-04-24T13:09:41.109Z,61.61
2023-04-24T13:10:43.560Z,62.28
2023-04-24T13:11:47.594Z,61.59
2023-04-24T13:12:49.974Z,60.68
2023-04-24T13:13:54.269Z,59.84
2023-04-24T13:14:55.844Z,61.28
2023-04-24T13:15:59.840Z,60.93
2023-04-24T13:17:02.387Z,61.21
2023-04-24T13:18:04.781Z,63.51
2023-04-24T13:19:09.825Z,61.17
2023-04-24T13:20:12.078Z,62.25
2023-04-24T13:21:14.570Z,61.56
2023-04-24T13:22:16.983Z,62.68
2023-04-24T13:23:19.408Z,60.78
2023-04-24T13:24:21.926Z,59.38
2023-04-24T13:25:24.416Z,60.89
2023-04-24T13:26:28.527Z,59.89
2023-04-24T13:28:58.316Z,59.18
2023-04-24T13:30:00.739Z,57.72
2023-04-24T13:31:04.829Z,57.21
2023-04-24T13:32:07.250Z,57.60
2023-04-24T13:33:11.292Z,57.34
2023-04-24T13:34:16.806Z,58.32
2023-04-24T13:35:20.813Z,57.08
2023-04-24T13:36:23.081Z,58.55
2023-04-24T13:37:27.170Z,58.70
2023-04-24T13:38:31.077Z,59.22
2023-04-24T13:39:35.048Z,59.26
2023-04-24T13:40:37.325Z,57.47
2023-04-24T13:41:41.294Z,58.20
2023-04-24T13:42:43.667Z,57.84
2023-04-24T13:43:46.186Z,58.09
2023-04-24T13:44:48.557Z,58.24
2023-04-24T13:45:51.053Z,58.37
2023-04-24T13:46:53.472Z,57.34
2023-04-24T13:47:55.897Z,57.72
2023-04-24T13:48:58.324Z,58.00
2023-04-24T13:50:00.759Z,58.33
2023-04-24T13:51:04.885Z,58.43
2023-04-24T13:52:07.267Z,58.01
2023-04-24T13:53:09.563Z,58.71
2023-04-24T13:54:13.600Z,60.15
2023-04-24T13:55:15.989Z,59.76
2023-04-24T13:56:18.481Z,60.64
2023-04-24T13:57:22.499Z,60.07
2023-04-24T13:58:27.379Z,60.86
2023-04-24T13:59:31.248Z,61.65
2023-04-24T14:00:35.160Z,63.38
2023-04-24T14:01:37.474Z,61.61
2023-04-24T14:02:41.692Z,60.90
2023-04-24T14:03:45.903Z,60.57
2023-04-24T14:04:47.968Z,58.87
2023-04-24T14:05:50.200Z,58.46
2023-04-24T14:06:52.620Z,59.68
2023-04-24T14:07:56.751Z,58.35
2023-04-24T14:09:00.626Z,58.08
2023-04-24T14:10:03.126Z,57.89
2023-04-24T14:11:05.446Z,57.72
2023-04-24T14:12:07.904Z,57.90
2023-04-24T14:13:10.364Z,60.22
2023-04-24T14:14:12.802Z,59.41
2023-04-24T14:15:15.276Z,59.06
2023-04-24T14:16:19.352Z,59.82
2023-04-24T14:17:23.260Z,60.85
2023-04-24T14:18:25.677Z,61.50
2023-04-24T14:19:28.096Z,59.31
2023-04-24T14:20:32.133Z,60.55
2023-04-24T14:21:36.146Z,60.56
2023-04-24T14:22:40.045Z,60.12
2023-04-24T14:23:42.453Z,60.69
2023-04-24T14:24:45.743Z,60.41
2023-04-24T14:25:49.732Z,62.24
2023-04-24T14:26:52.078Z,60.72
2023-04-24T14:27:56.147Z,61.17
2023-04-24T14:29:07.474Z,61.49
2023-04-24T14:30:00.922Z,62.40
2023-04-24T14:31:03.395Z,61.00
2023-04-24T14:32:05.891Z,58.51
2023-04-24T14:33:10.844Z,58.05
2023-04-24T14:34:14.704Z,59.13
2023-04-24T14:35:17.043Z,58.53
2023-04-24T14:36:21.092Z,57.66
2023-04-24T14:37:26.027Z,57.55
2023-04-24T14:38:28.369Z,57.56
2023-04-24T14:39:32.450Z,57.60
2023-04-24T14:41:37.329Z,55.69
2023-04-24T14:42:39.872Z,55.38
2023-04-24T14:43:42.472Z,54.29
2023-04-24T14:44:44.886Z,54.07
2023-04-24T14:45:47.385Z,55.13
2023-04-24T14:46:50.915Z,53.50
2023-04-24T14:47:53.436Z,53.52
2023-04-24T14:48:55.830Z,55.90
2023-04-24T14:49:58.666Z,52.24
2023-04-24T14:51:01.374Z,51.78
2023-04-24T14:52:04.060Z,50.31
2023-04-24T14:53:08.482Z,50.14
2023-04-24T14:54:12.511Z,49.84
2023-04-24T14:55:14.819Z,49.29
2023-04-24T14:56:22.259Z,49.21
2023-04-24T14:57:20.052Z,49.32
2023-04-24T14:58:22.733Z,49.37
2023-04-24T14:59:28.964Z,50.06
2023-04-24T15:00:31.152Z,49.89
2023-04-24T15:01:34.030Z,51.52
2023-04-24T15:02:36.892Z,49.77
2023-04-24T15:03:39.586Z,49.91
2023-04-24T15:04:42.066Z,51.17
2023-04-24T15:05:44.677Z,50.75
2023-04-24T15:06:46.866Z,51.69
2023-04-24T15:07:49.403Z,52.85
2023-04-24T15:08:51.909Z,52.99
2023-04-24T15:09:56.334Z,52.19
2023-04-24T15:10:58.915Z,55.84
2023-04-24T15:12:01.931Z,53.85
2023-04-24T15:13:04.951Z,53.74
2023-04-24T15:14:07.526Z,52.29
2023-04-24T15:15:10.036Z,51.57
2023-04-24T15:16:12.537Z,50.75
2023-04-24T15:17:16.548Z,48.88
2023-04-24T15:18:18.898Z,48.55
2023-04-24T15:19:21.473Z,50.60
2023-04-24T15:20:25.547Z,47.51
2023-04-24T15:21:27.882Z,46.94
2023-04-24T15:22:30.426Z,48.93
2023-04-24T15:23:32.950Z,49.66
2023-04-24T15:24:35.422Z,52.36
2023-04-24T15:25:39.533Z,49.48
2023-04-24T15:26:43.484Z,48.91
2023-04-24T15:27:45.855Z,46.41
2023-04-24T15:28:48.284Z,45.73
2023-04-24T15:29:50.718Z,46.24
2023-04-24T15:30:54.802Z,46.46
2023-04-24T15:31:57.214Z,46.92
2023-04-24T15:33:01.215Z,48.98
2023-04-24T15:34:05.089Z,47.21
2023-04-24T15:35:09.547Z,48.92
2023-04-24T15:36:09.921Z,49.44
2023-04-24T15:37:12.360Z,51.77
2023-04-24T15:38:14.770Z,50.68
2023-04-24T15:39:17.236Z,49.65
2023-04-24T15:40:19.694Z,49.65
2023-04-24T15:41:23.815Z,51.78
2023-04-24T15:42:26.122Z,51.36
2023-04-24T15:43:28.590Z,51.25
2023-04-24T15:44:31.929Z,53.21
2023-04-24T15:45:34.377Z,53.11
2023-04-24T15:46:38.269Z,53.61
2023-04-24T15:47:44.816Z,54.05
2023-04-24T15:48:46.848Z,53.68
2023-04-24T15:49:49.253Z,54.24
2023-04-24T15:50:54.410Z,54.81
2023-04-24T15:51:59.266Z,55.18
2023-04-24T15:53:01.505Z,55.79
2023-04-24T15:54:03.966Z,56.30
2023-04-24T15:55:07.667Z,56.94
2023-04-24T15:56:11.175Z,57.56
2023-04-24T15:57:14.248Z,57.85
2023-04-24T15:58:16.764Z,59.01
2023-04-24T15:59:19.212Z,59.59
2023-04-24T16:00:21.775Z,58.97
2023-04-24T16:01:25.631Z,58.64
2023-04-24T16:02:29.229Z,58.45
2023-04-24T16:03:31.493Z,58.96
2023-04-24T16:04:35.498Z,59.00
2023-04-24T16:05:37.731Z,58.96
2023-04-24T16:06:41.145Z,59.07
2023-04-24T16:07:44.625Z,60.85
2023-04-24T16:08:48.155Z,63.26
2023-04-24T16:09:50.287Z,62.77
2023-04-24T16:10:52.907Z,67.21
2023-04-24T16:11:56.318Z,66.94
2023-04-24T16:12:58.600Z,66.29
2023-04-24T16:14:00.992Z,66.57
2023-04-24T16:15:05.070Z,65.89
2023-04-24T16:16:07.393Z,65.58
2023-04-24T16:17:15.391Z,60.68
2023-04-24T16:18:18.613Z,59.71
2023-04-24T16:19:21.880Z,56.49
2023-04-24T16:20:25.089Z,54.58
2023-04-24T16:21:28.552Z,54.82
2023-04-24T16:22:33.577Z,53.86
2023-04-24T16:23:36.876Z,54.01
2023-04-24T16:24:40.419Z,52.23
2023-04-24T16:25:46.378Z,53.73
2023-04-24T16:26:48.842Z,53.13
2023-04-24T16:27:52.104Z,54.95
2023-04-24T16:28:55.586Z,54.31
2023-04-24T16:29:57.986Z,56.14
2023-04-24T16:31:01.359Z,56.20
2023-04-24T16:32:07.394Z,54.40
2023-04-24T16:33:10.628Z,53.87
2023-04-24T16:34:13.172Z,51.92
2023-04-24T16:35:15.616Z,52.92
2023-04-24T16:36:18.123Z,53.89
2023-04-24T16:37:24.253Z,55.08
2023-04-24T16:38:26.468Z,55.43
2023-04-24T16:39:28.963Z,56.84
2023-04-24T16:40:32.507Z,56.88
2023-04-24T16:41:39.567Z,58.26
2023-04-24T16:42:41.894Z,58.35
2023-04-24T16:43:45.182Z,59.08
2023-04-24T16:44:47.642Z,58.58
2023-04-24T16:45:50.929Z,58.66
2023-04-24T16:46:54.247Z,59.58
2023-04-24T16:48:00.430Z,61.37
2023-04-24T16:49:02.763Z,58.82
2023-04-24T16:50:05.027Z,59.42
2023-04-24T16:51:07.514Z,61.03
2023-04-24T16:52:09.957Z,61.34
2023-04-24T16:53:13.350Z,62.10
2023-04-24T16:54:16.547Z,61.79
2023-04-24T16:55:18.828Z,62.11
2023-04-24T16:56:22.200Z,62.85
2023-04-24T16:57:25.382Z,63.68
2023-04-24T16:58:28.770Z,64.30
2023-04-24T16:59:34.712Z,64.96
2023-04-24T17:00:37.958Z,65.07
2023-04-24T17:01:42.833Z,65.79
2023-04-24T17:02:45.025Z,66.00
2023-04-24T17:03:47.545Z,67.59
2023-04-24T17:04:51.238Z,68.98
2023-04-24T17:05:53.523Z,70.61
2023-04-24T17:06:55.806Z,73.43
2023-04-24T17:07:59.840Z,73.42
2023-04-24T17:09:02.094Z,73.99
2023-04-24T17:10:05.540Z,74.37
2023-04-24T17:11:08.944Z,75.30
2023-04-24T17:12:12.805Z,76.63
2023-04-24T17:13:15.051Z,78.25
2023-04-24T17:14:17.723Z,79.60
2023-04-24T17:15:20.017Z,80.60
2023-04-24T17:16:22.482Z,81.90
2023-04-24T17:17:25.855Z,82.42
2023-04-24T17:18:29.623Z,84.03
2023-04-24T17:19:33.482Z,85.13
2023-04-24T17:20:35.834Z,85.83
2023-04-24T17:21:38.383Z,86.45
2023-04-24T17:31:09.450Z,91.77
2023-04-24T17:32:11.969Z,92.48
2023-04-24T17:33:16.913Z,92.52
2023-04-24T17:42:46.312Z,94.96
2023-04-24T17:43:48.896Z,95.37
2023-04-24T17:44:52.786Z,95.62
2023-04-24T17:45:56.359Z,95.88
2023-04-24T17:46:58.461Z,96.23
2023-04-24T17:48:00.947Z,96.47
2023-04-24T17:49:03.212Z,96.54
2023-04-24T17:58:35.063Z,98.65
2023-04-24T18:08:07.210Z,98.24
2023-04-24T18:09:09.476Z,98.31
2023-04-24T18:10:11.906Z,98.20
2023-04-24T18:19:42.812Z,97.08
2023-04-24T18:29:12.489Z,99.33
2023-04-24T18:38:43.309Z,99.51
2023-04-24T18:48:10.741Z,98.32
2023-04-24T18:57:41.560Z,98.03
2023-04-24T19:07:12.816Z,98.21
2023-04-24T19:16:43.971Z,98.63
2023-04-24T19:26:17.032Z,97.74
2023-04-24T19:35:53.212Z,97.79
2023-04-24T19:45:25.824Z,97.41
2023-04-24T19:54:59.972Z,97.34
2023-04-24T20:04:30.517Z,97.02
2023-04-24T20:14:01.387Z,97.60
2023-04-24T20:23:34.060Z,98.54
2023-04-24T20:33:01.547Z,98.66
2023-04-24T20:42:34.756Z,99.22
2023-04-24T20:52:04.085Z,99.27
2023-04-24T21:01:45.187Z,98.89
2023-04-24T21:02:46.907Z,98.58
2023-04-24T21:12:17.180Z,98.50
2023-04-24T21:21:50.173Z,98.87
2023-04-24T21:31:20.465Z,98.87
2023-04-24T21:40:52.760Z,99.08
2023-04-24T21:50:23.560Z,99.11
2023-04-24T21:51:30.760Z,99.68
2023-04-24T22:01:00.730Z,99.88
2023-04-24T22:10:32.661Z,100.00
2023-04-24T22:30:03.388Z,100.00
2023-04-24T22:49:44.308Z,100.00
2023-04-24T22:52:45.907Z,100.00
2023-04-24T22:54:29.043Z,100.00
2023-04-24T23:26:03.953Z,100.00
2023-04-24T23:28:57.185Z,100.00
2023-04-24T23:58:13.762Z,100.00
